Time;durP1;ratioP1;P1;durP2;ratioP2;P2;SDS_P1;SDS_P2;PMS_P1;PMS_P2;Temp;Humidity;BMP_temperature;BMP_pressure;BME280_temperature;BME280_humidity;BME280_pressure;Samples;Min_cycle;Max_cycle;Signal;HPM_P1;HPM_P2
2023/03/02 00:01:42;;;;;;;73.83;52.87;;;-0.10;96.10;;;;;;4997659;28;20177;-90
2023/03/02 00:04:16;;;;;;;62.93;54.93;;;-0.10;96.10;;;;;;5015441;28;20611;-89
2023/03/02 00:06:41;;;;;;;79.80;54.03;;;-0.10;96.10;;;;;;5015000;28;20193;-89
2023/03/02 00:09:07;;;;;;;79.27;54.47;;;-0.10;96.10;;;;;;5014921;28;20573;-90
2023/03/02 00:11:36;;;;;;;91.73;55.77;;;-0.10;96.10;;;;;;5014935;28;20252;-90
2023/03/02 00:14:01;;;;;;;106.60;54.17;;;-0.10;96.10;;;;;;5015512;28;20181;-89
2023/03/02 00:16:27;;;;;;;60.27;48.70;;;-0.10;96.10;;;;;;5014958;28;20289;-89
2023/03/02 00:18:52;;;;;;;57.70;50.30;;;-0.10;96.10;;;;;;5015074;28;20173;-90
2023/03/02 00:21:18;;;;;;;73.30;51.63;;;-0.20;96.10;;;;;;4998173;28;20184;-90
2023/03/02 00:23:44;;;;;;;73.70;51.27;;;-0.20;96.10;;;;;;5014861;28;20173;-90
2023/03/02 00:26:09;;;;;;;71.90;56.93;;;-0.20;96.10;;;;;;5015188;28;20193;-91
2023/03/02 00:28:35;;;;;;;90.00;53.57;;;-0.20;96.10;;;;;;5016418;28;20566;-90
2023/03/02 00:31:04;;;;;;;70.63;52.77;;;-0.20;96.20;;;;;;4997397;28;20259;-91
2023/03/02 00:33:32;;;;;;;92.97;52.60;;;-0.20;96.20;;;;;;4998101;28;20328;-91
2023/03/02 00:35:57;;;;;;;109.83;58.13;;;-0.20;96.20;;;;;;4997141;28;20253;-91
2023/03/02 00:38:23;;;;;;;83.00;55.83;;;-0.20;96.20;;;;;;4996943;28;20189;-91
2023/03/02 00:40:49;;;;;;;86.10;55.60;;;-0.20;96.10;;;;;;4996942;28;20631;-91
2023/03/02 00:43:15;;;;;;;69.93;54.83;;;-0.20;96.20;;;;;;4997739;28;20190;-91
2023/03/02 00:45:41;;;;;;;67.20;50.77;;;-0.10;96.20;;;;;;4996779;28;20636;-91
2023/03/02 00:48:07;;;;;;;89.97;56.17;;;-0.20;96.20;;;;;;4998807;28;20177;-91
2023/03/02 00:50:38;;;;;;;87.17;55.70;;;-0.20;96.20;;;;;;4999371;28;20292;-91
2023/03/02 00:53:03;;;;;;;88.17;54.47;;;-0.20;96.20;;;;;;4998374;28;20197;-91
2023/03/02 00:55:29;;;;;;;97.20;58.70;;;-0.10;96.20;;;;;;4998529;28;20654;-90
2023/03/02 00:57:55;;;;;;;91.03;59.23;;;-0.20;96.20;;;;;;4997668;28;20229;-91
2023/03/02 01:00:22;;;;;;;102.53;56.10;;;-0.20;96.20;;;;;;4997845;28;20244;-91
2023/03/02 01:02:48;;;;;;;119.93;55.83;;;-0.20;96.20;;;;;;4997620;28;20183;-91
2023/03/02 01:05:14;;;;;;;106.37;56.83;;;-0.20;96.20;;;;;;5015409;28;20182;-92
2023/03/02 01:07:40;;;;;;;103.27;56.47;;;-0.20;96.20;;;;;;4998390;28;20202;-92
2023/03/02 01:10:06;;;;;;;166.83;57.70;;;-0.20;96.30;;;;;;4997592;28;20267;-91
2023/03/02 01:12:31;;;;;;;124.57;56.33;;;-0.20;96.20;;;;;;5000025;28;20185;-90
2023/03/02 01:14:58;;;;;;;91.27;57.53;;;-0.20;96.20;;;;;;5016277;28;20256;-92
2023/03/02 01:17:24;;;;;;;150.93;57.57;;;-0.20;96.20;;;;;;5001826;28;20200;-92
2023/03/02 01:19:50;;;;;;;143.43;60.30;;;-0.30;96.20;;;;;;5008220;28;20185;-92
2023/03/02 01:22:17;;;;;;;108.77;56.57;;;-0.30;96.20;;;;;;5007064;28;20180;-93
2023/03/02 01:24:42;;;;;;;133.70;52.87;;;-0.30;96.30;;;;;;5007646;28;20200;-92
2023/03/02 01:27:08;;;;;;;171.10;60.77;;;-0.30;96.30;;;;;;5011862;28;20260;-93
2023/03/02 01:29:34;;;;;;;160.27;55.23;;;-0.30;96.30;;;;;;5010603;28;20573;-90
2023/03/02 01:32:03;;;;;;;189.60;58.10;;;-0.30;96.30;;;;;;5014194;28;20181;-90
2023/03/02 01:34:29;;;;;;;193.63;58.50;;;-0.20;96.30;;;;;;5013975;28;20180;-90
2023/03/02 01:36:54;;;;;;;183.13;55.70;;;-0.20;96.30;;;;;;5013569;28;20222;-90
2023/03/02 01:39:21;;;;;;;110.10;52.00;;;-0.20;96.30;;;;;;4995982;28;20186;-90
2023/03/02 01:41:48;;;;;;;118.40;52.77;;;-0.20;96.30;;;;;;4996299;28;20239;-90
2023/03/02 01:44:35;;;;;;;125.87;58.43;;;-0.20;96.30;;;;;;5013805;28;20178;-90
2023/03/02 01:47:12;;;;;;;169.67;58.43;;;-0.30;96.30;;;;;;5013770;28;20221;-90
2023/03/02 01:49:46;;;;;;;200.97;59.60;;;-0.20;96.30;;;;;;4996355;28;20209;-90
2023/03/02 01:52:12;;;;;;;122.60;56.27;;;-0.20;96.30;;;;;;4996241;28;20191;-90
2023/03/02 01:54:40;;;;;;;160.70;53.70;;;-0.30;96.30;;;;;;5013802;28;20165;-89
2023/03/02 01:57:07;;;;;;;195.43;58.87;;;-0.30;96.30;;;;;;5013608;28;20192;-90
2023/03/02 01:59:37;;;;;;;246.33;59.80;;;-0.40;96.30;;;;;;4996193;28;20273;-90
2023/03/02 02:02:05;;;;;;;197.23;59.10;;;-0.40;96.30;;;;;;5013841;28;20166;-90
2023/03/02 02:04:33;;;;;;;215.47;60.57;;;-0.40;96.30;;;;;;5014093;28;20219;-91
2023/03/02 02:07:02;;;;;;;164.90;59.10;;;-0.40;96.30;;;;;;5013786;28;20204;-90
2023/03/02 02:09:30;;;;;;;178.23;57.50;;;-0.40;96.30;;;;;;4996063;28;20197;-90
2023/03/02 02:11:56;;;;;;;119.27;55.73;;;-0.30;96.30;;;;;;5014051;28;20177;-91
2023/03/02 02:14:22;;;;;;;145.70;60.57;;;-0.40;96.30;;;;;;5013686;28;20192;-90
2023/03/02 02:16:49;;;;;;;145.20;61.23;;;-0.30;96.30;;;;;;5013960;28;20193;-90
2023/03/02 02:19:29;;;;;;;123.63;61.73;;;-0.30;96.30;;;;;;5013654;28;20256;-90
2023/03/02 02:21:54;;;;;;;68.03;59.30;;;-0.30;96.30;;;;;;5013847;28;20165;-90
2023/03/02 02:24:58;;;;;;;65.20;58.17;;;-0.40;96.30;;;;;;5013629;28;20180;-90
2023/03/02 02:27:32;;;;;;;69.10;60.07;;;-0.50;96.30;;;;;;4915168;29;20738;-90
2023/03/02 02:30:01;;;;;;;65.73;58.60;;;-0.50;96.30;;;;;;4998915;28;20217;-90
2023/03/02 02:32:31;;;;;;;62.07;56.77;;;-0.60;96.30;;;;;;5013589;28;20605;-90
2023/03/02 02:35:17;;;;;;;65.43;59.73;;;-0.60;96.30;;;;;;5013410;28;20177;-90
2023/03/02 02:38:01;;;;;;;64.07;57.47;;;-0.60;96.30;;;;;;5013383;28;20205;-91
2023/03/02 02:40:50;;;;;;;70.67;59.70;;;-0.60;96.30;;;;;;4995707;28;20174;-90
2023/03/02 02:43:19;;;;;;;57.83;51.90;;;-0.60;96.40;;;;;;5013938;28;20173;-90
2023/03/02 02:45:48;;;;;;;57.80;52.60;;;-0.60;96.30;;;;;;4995665;28;20187;-90
2023/03/02 02:48:19;;;;;;;64.80;58.17;;;-0.60;96.40;;;;;;5013595;28;20205;-90
2023/03/02 02:50:46;;;;;;;64.43;57.67;;;-0.50;96.40;;;;;;5016860;28;20543;-90
2023/03/02 02:53:21;;;;;;;62.60;55.97;;;-0.50;96.40;;;;;;5017122;28;20193;-91
2023/03/02 02:55:51;;;;;;;65.27;58.77;;;-0.50;96.40;;;;;;5016775;28;20173;-89
2023/03/02 02:58:54;;;;;;;68.20;57.53;;;-0.50;96.40;;;;;;4999446;28;20220;-90
2023/03/02 03:01:24;;;;;;;62.20;56.33;;;-0.50;96.40;;;;;;4918389;29;20292;-90
2023/03/02 03:04:00;;;;;;;61.90;51.47;;;-0.50;96.40;;;;;;4999518;28;20276;-90
2023/03/02 03:06:36;;;;;;;72.77;59.10;;;-0.50;96.40;;;;;;5016562;28;20208;-90
2023/03/02 03:09:06;;;;;;;61.47;55.10;;;-0.40;96.40;;;;;;5016282;28;20193;-90
2023/03/02 03:11:35;;;;;;;60.53;54.37;;;-0.40;96.40;;;;;;5016567;28;20173;-91
2023/03/02 03:14:09;;;;;;;84.07;59.50;;;-0.40;96.40;;;;;;5016285;28;20522;-90
2023/03/02 03:16:38;;;;;;;65.87;56.53;;;-0.40;96.40;;;;;;4998778;28;20675;-90
2023/03/02 03:19:05;;;;;;;104.57;60.73;;;-0.40;96.40;;;;;;4998645;28;20588;-90
2023/03/02 03:21:31;;;;;;;66.67;59.70;;;-0.40;96.40;;;;;;4999062;28;20651;-90
2023/03/02 03:23:57;;;;;;;86.00;58.17;;;-0.40;96.40;;;;;;5016425;28;20180;-90
2023/03/02 03:26:22;;;;;;;130.00;60.27;;;-0.50;96.40;;;;;;5016191;28;20304;-91
2023/03/02 03:28:48;;;;;;;85.63;63.80;;;-0.50;96.40;;;;;;4998876;28;20255;-90
2023/03/02 03:31:13;;;;;;;67.83;60.30;;;-0.40;96.40;;;;;;4998719;28;20227;-90
2023/03/02 03:33:39;;;;;;;89.47;64.23;;;-0.40;96.40;;;;;;4999109;28;20179;-90
2023/03/02 03:36:05;;;;;;;88.30;60.60;;;-0.50;96.40;;;;;;5016347;28;20224;-90
2023/03/02 03:38:30;;;;;;;88.93;62.60;;;-0.50;96.40;;;;;;5016384;28;20194;-90
2023/03/02 03:40:56;;;;;;;67.67;60.33;;;-0.40;96.40;;;;;;5016322;28;20181;-90
2023/03/02 03:43:21;;;;;;;74.57;64.43;;;-0.40;96.50;;;;;;4998746;28;20655;-90
2023/03/02 03:45:47;;;;;;;88.53;63.37;;;-0.40;96.40;;;;;;5015816;28;20186;-90
2023/03/02 03:48:12;;;;;;;69.57;62.07;;;-0.50;96.40;;;;;;5015839;28;20264;-90
2023/03/02 03:50:39;;;;;;;78.47;63.30;;;-0.50;96.40;;;;;;5016146;28;20235;-90
2023/03/02 03:53:04;;;;;;;87.23;66.03;;;-0.50;96.40;;;;;;5015411;28;20189;-90
2023/03/02 03:55:30;;;;;;;113.53;66.53;;;-0.50;96.40;;;;;;5015501;28;20184;-90
2023/03/02 03:57:55;;;;;;;97.47;60.67;;;-0.50;96.40;;;;;;4998425;28;20569;-90
2023/03/02 04:00:22;;;;;;;73.30;62.63;;;-0.50;96.40;;;;;;5014996;28;20252;-90
2023/03/02 04:02:47;;;;;;;64.60;58.20;;;-0.50;96.50;;;;;;5015552;28;20205;-90
2023/03/02 04:05:13;;;;;;;77.53;62.33;;;-0.60;96.40;;;;;;5015529;28;20201;-90
2023/03/02 04:07:39;;;;;;;76.03;63.93;;;-0.50;96.50;;;;;;4997882;28;20217;-90
2023/03/02 04:10:07;;;;;;;69.13;62.03;;;-0.50;96.50;;;;;;5015578;28;20278;-90
2023/03/02 04:12:35;;;;;;;73.43;65.13;;;-0.50;96.50;;;;;;5015488;28;20169;-90
2023/03/02 04:15:03;;;;;;;72.63;65.27;;;-0.50;96.50;;;;;;5015309;28;20173;-90
2023/03/02 04:17:28;;;;;;;71.60;64.00;;;-0.60;96.50;;;;;;5015508;28;20224;-91
2023/03/02 04:19:54;;;;;;;105.20;67.47;;;-0.60;96.50;;;;;;4997768;28;20181;-90
2023/03/02 04:22:20;;;;;;;85.70;68.43;;;-0.60;96.50;;;;;;5015275;28;20231;-90
2023/03/02 04:24:48;;;;;;;123.77;65.87;;;-0.50;96.50;;;;;;5015296;28;20231;-90
2023/03/02 04:27:14;;;;;;;95.43;65.53;;;-0.50;96.50;;;;;;5015409;28;20198;-90
2023/03/02 04:29:40;;;;;;;140.90;72.33;;;-0.50;96.50;;;;;;5015410;28;20702;-90
2023/03/02 04:32:06;;;;;;;89.37;73.23;;;-0.50;96.50;;;;;;4997780;28;20179;-90
2023/03/02 04:34:32;;;;;;;98.33;81.87;;;-0.50;96.50;;;;;;5015298;28;20223;-90
2023/03/02 04:36:58;;;;;;;99.97;82.23;;;-0.40;96.50;;;;;;5015510;28;20546;-90
2023/03/02 04:39:24;;;;;;;133.00;81.23;;;-0.50;96.50;;;;;;5015044;28;20185;-91
2023/03/02 04:41:50;;;;;;;125.87;87.43;;;-0.50;96.50;;;;;;5014773;28;20188;-90
2023/03/02 04:44:16;;;;;;;101.07;84.33;;;-0.50;96.50;;;;;;5014977;28;20169;-91
2023/03/02 04:46:43;;;;;;;119.10;78.87;;;-0.50;96.50;;;;;;5014562;28;20211;-90
2023/03/02 04:49:09;;;;;;;129.73;83.43;;;-0.50;96.50;;;;;;5015025;28;20208;-90
2023/03/02 04:51:40;;;;;;;129.43;87.77;;;-0.50;96.50;;;;;;5014575;28;20255;-90
2023/03/02 04:54:22;;;;;;;107.30;95.97;;;-0.50;96.50;;;;;;5014589;28;20235;-90
2023/03/02 04:56:47;;;;;;;99.50;89.53;;;-0.50;96.50;;;;;;5015061;28;20591;-90
2023/03/02 04:59:15;;;;;;;101.23;91.07;;;-0.60;96.50;;;;;;4997021;28;20181;-91
2023/03/02 05:01:41;;;;;;;115.43;85.00;;;-0.60;96.50;;;;;;5014484;28;20701;-90
2023/03/02 05:04:06;;;;;;;106.67;91.17;;;-0.60;96.50;;;;;;4997191;28;20183;-90
2023/03/02 05:06:32;;;;;;;118.80;89.73;;;-0.60;96.50;;;;;;5014731;28;20256;-90
2023/03/02 05:09:01;;;;;;;102.00;88.40;;;-0.60;96.50;;;;;;5014541;28;20201;-90
2023/03/02 05:11:27;;;;;;;103.57;92.43;;;-0.60;96.50;;;;;;4996702;28;20181;-90
2023/03/02 05:13:58;;;;;;;124.93;90.30;;;-0.60;96.50;;;;;;4996195;28;20207;-90
2023/03/02 05:16:27;;;;;;;147.30;99.57;;;-0.60;96.50;;;;;;5014220;28;20557;-90
2023/03/02 05:18:53;;;;;;;110.77;99.17;;;-0.70;96.40;;;;;;5014371;28;20179;-90
2023/03/02 05:21:19;;;;;;;118.77;98.30;;;-0.60;96.50;;;;;;5014562;28;20178;-90
2023/03/02 05:23:45;;;;;;;112.13;100.50;;;-0.60;96.50;;;;;;5014383;28;20190;-90
2023/03/02 05:26:11;;;;;;;141.73;96.43;;;-0.50;96.50;;;;;;5014631;28;20297;-90
2023/03/02 05:28:37;;;;;;;110.50;99.20;;;-0.50;96.50;;;;;;4996406;28;20217;-89
2023/03/02 05:31:03;;;;;;;114.93;105.00;;;-0.50;96.50;;;;;;5014350;28;20264;-90
2023/03/02 05:33:29;;;;;;;116.73;106.10;;;-0.50;96.50;;;;;;5013942;28;20212;-90
2023/03/02 05:35:55;;;;;;;119.57;109.23;;;-0.60;96.50;;;;;;5014294;28;20169;-90
2023/03/02 05:38:21;;;;;;;120.50;108.77;;;-0.60;96.50;;;;;;5014126;28;20548;-90
2023/03/02 05:40:46;;;;;;;121.37;109.27;;;-0.70;96.50;;;;;;5013981;28;20181;-90
2023/03/02 05:43:16;;;;;;;188.50;111.17;;;-0.70;96.50;;;;;;5014002;28;20192;-90
2023/03/02 05:45:42;;;;;;;149.67;109.43;;;-0.70;96.50;;;;;;5013679;28;20260;-90
2023/03/02 05:48:08;;;;;;;273.90;114.50;;;-0.80;96.40;;;;;;5013732;28;20205;-90
2023/03/02 05:50:34;;;;;;;153.33;112.03;;;-0.80;96.50;;;;;;5014438;28;20170;-90
2023/03/02 05:53:01;;;;;;;142.33;113.57;;;-0.70;96.50;;;;;;5013998;28;20671;-90
2023/03/02 05:55:27;;;;;;;230.57;112.37;;;-0.80;96.50;;;;;;5014593;28;20166;-90
2023/03/02 05:57:53;;;;;;;203.00;113.50;;;-0.80;96.50;;;;;;5013748;28;20216;-90
2023/03/02 06:00:19;;;;;;;192.77;111.77;;;-0.70;96.50;;;;;;5014106;28;20177;-90
2023/03/02 06:02:45;;;;;;;164.20;108.33;;;-0.70;96.50;;;;;;4996476;28;20174;-89
2023/03/02 06:05:17;;;;;;;186.23;114.93;;;-0.70;96.50;;;;;;5013380;28;20196;-91
2023/03/02 06:07:43;;;;;;;189.57;111.53;;;-0.70;96.50;;;;;;4996129;28;20255;-91
2023/03/02 06:10:10;;;;;;;175.73;112.53;;;-0.70;96.50;;;;;;5019452;28;20197;-93
2023/03/02 06:12:36;;;;;;;230.87;115.50;;;-0.70;96.50;;;;;;4999195;28;20212;-90
2023/03/02 06:15:04;;;;;;;287.53;114.57;;;-0.70;96.50;;;;;;4996421;28;20185;-88
2023/03/02 06:17:30;;;;;;;231.70;111.53;;;-0.60;96.50;;;;;;4996715;28;20210;-91
2023/03/02 06:19:56;;;;;;;169.07;108.90;;;-0.60;96.50;;;;;;4997169;28;20193;-91
2023/03/02 06:22:21;;;;;;;251.57;111.00;;;-0.60;96.50;;;;;;4998740;28;20188;-92
2023/03/02 06:24:47;;;;;;;242.33;110.47;;;-0.60;96.50;;;;;;5001586;28;20210;-92
2023/03/02 06:27:13;;;;;;;218.07;110.80;;;-0.60;96.50;;;;;;5001017;28;20744;-90
2023/03/02 06:29:39;;;;;;;289.77;116.53;;;-0.60;96.50;;;;;;5018613;28;20220;-91
2023/03/02 06:32:05;;;;;;;216.43;105.17;;;-0.60;96.50;;;;;;5017479;28;20174;-87
2023/03/02 06:34:30;;;;;;;227.73;112.13;;;-0.60;96.50;;;;;;4999376;28;20205;-88
2023/03/02 06:36:56;;;;;;;225.07;110.80;;;-0.60;96.50;;;;;;4999617;28;20195;-88
2023/03/02 06:39:22;;;;;;;267.23;111.53;;;-0.60;96.50;;;;;;4999512;28;20200;-88
2023/03/02 06:41:48;;;;;;;306.73;112.80;;;-0.60;96.50;;;;;;5020535;28;20239;-88
2023/03/02 06:44:21;;;;;;;230.20;115.23;;;-0.50;96.50;;;;;;5023125;28;20169;-88
2023/03/02 06:46:47;;;;;;;227.03;114.37;;;-0.50;96.50;;;;;;5024962;28;20185;-90
2023/03/02 06:49:13;;;;;;;349.53;119.23;;;-0.50;96.50;;;;;;5025047;28;20209;-89
2023/03/02 06:51:39;;;;;;;324.73;121.33;;;-0.50;96.50;;;;;;5025005;28;20193;-89
2023/03/02 06:54:09;;;;;;;309.03;122.87;;;-0.50;96.50;;;;;;5024899;28;20209;-90
2023/03/02 06:56:35;;;;;;;307.87;117.03;;;-0.40;96.50;;;;;;5024990;28;20189;-89
2023/03/02 06:59:01;;;;;;;267.13;122.93;;;-0.40;96.50;;;;;;5025052;28;20175;-89
2023/03/02 12:13:12;;;;;;;193.37;179.83;;;2.00;96.10;;;;;;5649014;23;20655;-88
2023/03/02 12:15:41;;;;;;;188.43;175.17;;;1.90;96.00;;;;;;4976021;28;20178;-89
2023/03/02 12:18:19;;;;;;;188.43;175.63;;;1.80;96.00;;;;;;4975805;28;20186;-89
2023/03/02 12:20:45;;;;;;;184.60;172.17;;;1.80;96.00;;;;;;4975843;28;20166;-89
2023/03/02 12:23:23;;;;;;;186.30;174.00;;;1.90;96.00;;;;;;4975445;28;20193;-88
2023/03/02 12:25:59;;;;;;;184.00;171.57;;;1.90;95.90;;;;;;4958733;28;20187;-87
2023/03/02 12:28:35;;;;;;;179.40;166.63;;;2.00;96.00;;;;;;4975596;28;20178;-87
2023/03/02 12:31:12;;;;;;;182.53;169.67;;;2.10;96.00;;;;;;4975625;28;20525;-89
2023/03/02 12:33:49;;;;;;;165.83;153.87;;;2.20;95.90;;;;;;4958652;28;20173;-87
2023/03/02 12:36:34;;;;;;;171.10;159.37;;;2.20;95.90;;;;;;4975506;28;20229;-87
2023/03/02 12:39:24;;;;;;;166.53;154.20;;;2.30;95.90;;;;;;4975861;28;20174;-87
2023/03/02 12:42:27;;;;;;;163.60;151.83;;;2.20;95.80;;;;;;4958540;28;20540;-87
2023/03/02 12:45:20;;;;;;;162.60;150.77;;;2.30;95.80;;;;;;4975601;28;20205;-87
2023/03/02 12:47:50;;;;;;;150.00;139.03;;;2.30;95.70;;;;;;4958295;28;20210;-87
2023/03/02 12:50:22;;;;;;;146.57;135.77;;;2.30;95.60;;;;;;4958035;28;20206;-87
2023/03/02 12:53:02;;;;;;;141.33;131.13;;;2.20;95.50;;;;;;4957946;28;20182;-89
2023/03/02 12:55:28;;;;;;;138.47;128.77;;;2.30;95.40;;;;;;4957935;28;20181;-89
2023/03/02 12:57:57;;;;;;;141.97;132.03;;;2.30;95.30;;;;;;4957704;28;20202;-87
2023/03/02 13:00:26;;;;;;;128.10;118.90;;;2.30;95.30;;;;;;4975056;28;20179;-89
2023/03/02 13:02:53;;;;;;;141.00;131.37;;;2.20;95.10;;;;;;4975412;28;20648;-88
2023/03/02 13:05:22;;;;;;;117.17;108.87;;;2.30;95.20;;;;;;4975124;28;20209;-87
2023/03/02 13:08:08;;;;;;;128.60;119.33;;;2.30;95.00;;;;;;4957679;28;20276;-88
2023/03/02 13:10:39;;;;;;;114.63;106.67;;;2.50;95.10;;;;;;4957613;28;20601;-88
2023/03/02 13:13:19;;;;;;;116.83;107.83;;;2.40;94.80;;;;;;4957765;28;20612;-87
2023/03/02 13:15:52;;;;;;;113.77;105.33;;;2.40;94.70;;;;;;4957594;28;20282;-87
2023/03/02 13:18:20;;;;;;;106.70;99.07;;;2.50;94.70;;;;;;4974824;28;20226;-86
2023/03/02 13:20:46;;;;;;;104.43;96.97;;;2.40;94.40;;;;;;4974946;28;20185;-87
2023/03/02 13:23:13;;;;;;;99.10;91.63;;;2.40;94.40;;;;;;4957647;28;20236;-87
2023/03/02 13:25:48;;;;;;;98.77;90.83;;;2.40;94.20;;;;;;4957466;28;20179;-88
2023/03/02 13:28:26;;;;;;;95.83;88.60;;;2.50;94.20;;;;;;4958075;28;20586;-87
2023/03/02 13:31:16;;;;;;;99.43;92.10;;;2.50;94.00;;;;;;4957844;28;20213;-89
2023/03/02 13:33:47;;;;;;;92.67;85.97;;;2.50;93.90;;;;;;4956884;28;20181;-87
2023/03/02 13:36:22;;;;;;;94.77;87.60;;;2.60;93.80;;;;;;4958116;28;20234;-87
2023/03/02 13:38:51;;;;;;;98.97;91.47;;;2.60;93.70;;;;;;4975172;28;20189;-88
2023/03/02 13:41:24;;;;;;;97.70;90.23;;;2.70;93.70;;;;;;4958074;28;20179;-87
2023/03/02 13:43:50;;;;;;;95.77;88.60;;;2.80;93.70;;;;;;4957415;28;20341;-87
2023/03/02 13:46:15;;;;;;;95.30;87.93;;;2.80;93.60;;;;;;4957136;28;20297;-87
2023/03/02 13:48:51;;;;;;;94.23;87.40;;;2.90;93.70;;;;;;4956979;28;20205;-87
2023/03/02 13:51:18;;;;;;;84.17;77.57;;;3.00;93.60;;;;;;4975141;28;20519;-87
2023/03/02 13:53:54;;;;;;;82.03;75.60;;;3.00;93.40;;;;;;4974663;28;20185;-87
2023/03/02 13:56:25;;;;;;;77.37;71.30;;;3.00;93.30;;;;;;4957244;28;20221;-87
2023/03/02 13:58:51;;;;;;;74.53;67.80;;;3.10;93.20;;;;;;4957109;28;20185;-88
2023/03/02 14:01:17;;;;;;;69.73;64.03;;;3.10;93.00;;;;;;4974718;28;20265;-87
2023/03/02 14:03:42;;;;;;;69.20;63.57;;;3.00;92.80;;;;;;4957222;28;20265;-87
2023/03/02 14:06:08;;;;;;;62.43;57.30;;;2.90;92.60;;;;;;4976478;28;20199;-89
2023/03/02 14:08:33;;;;;;;56.93;52.13;;;2.90;92.40;;;;;;4957568;28;20189;-91
2023/03/02 14:11:01;;;;;;;58.23;53.37;;;2.80;92.10;;;;;;4957214;28;20175;-88
2023/03/02 14:13:53;;;;;;;60.60;55.30;;;2.80;92.00;;;;;;4957033;28;20190;-88
2023/03/02 14:16:23;;;;;;;60.40;55.50;;;2.70;91.90;;;;;;4956940;28;20700;-88
2023/03/02 14:18:49;;;;;;;59.03;54.07;;;2.80;92.00;;;;;;4957009;28;20188;-89
2023/03/02 14:21:21;;;;;;;58.90;54.00;;;2.90;91.90;;;;;;4956966;28;20187;-88
2023/03/02 14:23:47;;;;;;;58.40;53.47;;;2.90;91.80;;;;;;4975059;28;20179;-88
2023/03/02 14:26:34;;;;;;;57.33;52.33;;;3.00;91.80;;;;;;4957166;28;20253;-88
2023/03/02 14:29:12;;;;;;;58.63;53.67;;;3.00;91.60;;;;;;4957101;28;20203;-88
2023/03/02 14:31:38;;;;;;;58.53;52.90;;;3.00;91.60;;;;;;4957458;28;20177;-89
2023/03/02 14:34:06;;;;;;;55.93;51.07;;;3.00;91.40;;;;;;4957456;28;20182;-89
2023/03/02 14:36:33;;;;;;;61.60;56.37;;;3.00;91.40;;;;;;4974391;28;20199;-89
2023/03/02 14:39:02;;;;;;;61.43;55.90;;;3.10;91.50;;;;;;4956823;28;20192;-89
2023/03/02 14:41:28;;;;;;;64.20;58.70;;;3.10;91.40;;;;;;4956809;28;20178;-89
2023/03/02 14:43:54;;;;;;;58.60;53.50;;;3.20;91.50;;;;;;4956831;28;20206;-89
2023/03/02 14:46:19;;;;;;;55.93;51.07;;;3.30;91.40;;;;;;4960632;28;20204;-90
2023/03/02 14:48:47;;;;;;;54.13;49.43;;;3.20;91.20;;;;;;4960172;28;20692;-89
2023/03/02 14:51:25;;;;;;;50.03;45.77;;;3.20;90.90;;;;;;4977485;28;20176;-89
2023/03/02 14:53:52;;;;;;;54.23;49.23;;;3.10;90.80;;;;;;4977587;28;20166;-89
2023/03/02 14:56:23;;;;;;;57.63;52.63;;;3.10;90.80;;;;;;4960119;28;20573;-89
2023/03/02 14:58:52;;;;;;;59.53;54.53;;;3.20;90.90;;;;;;4960758;28;20274;-89
2023/03/02 15:01:18;;;;;;;57.00;51.87;;;3.20;90.70;;;;;;4960168;28;20210;-90
2023/03/02 15:03:44;;;;;;;59.80;54.43;;;3.20;90.60;;;;;;4960763;28;20218;-89
2023/03/02 15:06:24;;;;;;;55.03;50.30;;;3.20;90.80;;;;;;4960454;28;20704;-89
2023/03/02 15:08:49;;;;;;;53.70;48.83;;;3.30;90.70;;;;;;4960001;28;20277;-89
2023/03/02 15:11:15;;;;;;;52.60;47.93;;;3.30;90.70;;;;;;4959956;28;20204;-89
2023/03/02 15:13:40;;;;;;;54.63;49.70;;;3.30;90.50;;;;;;4960084;28;20196;-89
2023/03/02 15:16:09;;;;;;;55.83;50.83;;;3.30;90.50;;;;;;4959706;28;20195;-89
2023/03/02 15:18:35;;;;;;;52.33;47.83;;;3.30;90.50;;;;;;4959640;28;20665;-89
2023/03/02 15:21:00;;;;;;;49.60;45.27;;;3.30;90.40;;;;;;4959939;28;20266;-89
2023/03/02 15:23:26;;;;;;;50.17;45.77;;;3.30;90.20;;;;;;4960214;28;20171;-89
2023/03/02 15:25:54;;;;;;;52.37;47.93;;;3.20;90.00;;;;;;4959984;28;20236;-90
2023/03/02 15:28:20;;;;;;;51.57;46.97;;;3.20;90.00;;;;;;4979567;28;20174;-90
2023/03/02 15:30:46;;;;;;;50.33;45.90;;;3.10;89.90;;;;;;4961460;28;20183;-89
2023/03/02 15:33:11;;;;;;;48.57;44.07;;;3.10;89.90;;;;;;4961460;28;20171;-88
2023/03/02 15:35:38;;;;;;;51.83;47.20;;;3.00;89.80;;;;;;4960847;28;20181;-90
2023/03/02 15:38:04;;;;;;;49.73;45.37;;;3.10;90.00;;;;;;4961207;28;20194;-89
2023/03/02 15:40:30;;;;;;;50.63;46.17;;;3.10;90.10;;;;;;4978972;28;20675;-90
2023/03/02 15:43:01;;;;;;;46.13;41.63;;;3.10;90.10;;;;;;4961525;28;20593;-91
2023/03/02 15:45:27;;;;;;;44.73;40.33;;;3.20;90.10;;;;;;4960441;28;20209;-90
2023/03/02 15:47:54;;;;;;;48.17;43.67;;;3.20;89.90;;;;;;4959407;28;20690;-90
2023/03/02 15:50:20;;;;;;;46.37;42.00;;;3.20;89.80;;;;;;4959030;28;20583;-91
2023/03/02 15:52:45;;;;;;;48.70;44.17;;;3.20;89.80;;;;;;4959025;28;20226;-90
2023/03/02 15:55:13;;;;;;;49.40;44.60;;;3.20;89.90;;;;;;4959271;28;20538;-91
2023/03/02 15:57:39;;;;;;;43.83;39.60;;;3.40;89.90;;;;;;4975991;28;20370;-90
2023/03/02 16:00:05;;;;;;;42.87;38.37;;;3.50;90.00;;;;;;4959459;28;20269;-91
2023/03/02 16:02:31;;;;;;;41.77;37.53;;;3.50;89.90;;;;;;4959177;28;20710;-91
2023/03/02 16:04:56;;;;;;;44.50;37.30;;;3.50;89.90;;;;;;4976226;28;20256;-91
2023/03/02 16:07:22;;;;;;;41.03;36.60;;;3.50;89.50;;;;;;4958898;28;20290;-91
2023/03/02 16:09:47;;;;;;;40.63;36.73;;;3.40;89.30;;;;;;4958715;28;20206;-90
2023/03/02 16:12:13;;;;;;;39.80;35.30;;;3.40;89.30;;;;;;4958485;28;20180;-90
2023/03/02 16:14:39;;;;;;;37.47;33.73;;;3.30;89.30;;;;;;4958690;28;20634;-90
2023/03/02 16:17:04;;;;;;;40.70;36.30;;;3.30;89.10;;;;;;4958640;28;20202;-90
2023/03/02 16:19:31;;;;;;;39.13;35.00;;;3.30;89.10;;;;;;4958541;28;20185;-90
2023/03/02 16:21:56;;;;;;;38.23;34.17;;;3.30;89.00;;;;;;4958817;28;20265;-91
2023/03/02 16:24:22;;;;;;;38.40;34.77;;;3.30;89.00;;;;;;4958652;28;20271;-90
2023/03/02 16:26:49;;;;;;;38.47;34.33;;;3.30;88.90;;;;;;4958834;28;20196;-90
2023/03/02 16:29:15;;;;;;;39.53;35.60;;;3.30;88.80;;;;;;4959111;28;20198;-90
2023/03/02 16:31:43;;;;;;;40.33;36.13;;;3.30;88.80;;;;;;4958584;28;20183;-90
2023/03/02 16:34:09;;;;;;;42.33;37.70;;;3.30;88.90;;;;;;4958235;28;20188;-90
2023/03/02 16:36:37;;;;;;;41.30;37.07;;;3.30;89.00;;;;;;4958232;28;20191;-90
2023/03/02 16:39:04;;;;;;;44.77;39.97;;;3.30;89.00;;;;;;4958104;28;20275;-90
2023/03/02 16:41:29;;;;;;;43.33;38.83;;;3.30;88.90;;;;;;4958135;28;20538;-91
2023/03/02 16:43:57;;;;;;;41.70;37.30;;;3.30;88.90;;;;;;4958030;28;20281;-90
2023/03/02 16:46:24;;;;;;;42.93;38.43;;;3.30;88.90;;;;;;4958797;28;20270;-90
2023/03/02 16:48:51;;;;;;;44.37;38.97;;;3.30;89.00;;;;;;4958047;28;20550;-91
2023/03/02 16:51:17;;;;;;;42.67;38.20;;;3.30;89.20;;;;;;4958057;28;20599;-90
2023/03/02 16:53:43;;;;;;;46.27;37.73;;;3.40;89.20;;;;;;4975181;28;20199;-90
2023/03/02 16:56:10;;;;;;;44.67;39.90;;;3.40;89.20;;;;;;4958108;28;20690;-90
2023/03/02 16:58:40;;;;;;;43.07;36.23;;;3.40;89.30;;;;;;4957979;28;20593;-91
2023/03/02 17:01:17;;;;;;;44.67;40.03;;;3.30;89.20;;;;;;4959336;28;20175;-89
2023/03/02 17:03:43;;;;;;;45.23;40.30;;;3.40;89.40;;;;;;4961745;28;20182;-90
2023/03/02 17:06:10;;;;;;;46.47;39.13;;;3.60;89.70;;;;;;4963288;28;20196;-89
2023/03/02 17:08:35;;;;;;;41.07;36.50;;;3.70;89.30;;;;;;4960029;28;20261;-90
2023/03/02 17:11:01;;;;;;;46.50;39.83;;;3.70;88.90;;;;;;4960187;28;20281;-90
2023/03/02 17:13:27;;;;;;;47.00;41.90;;;3.60;88.60;;;;;;4959333;28;20187;-90
2023/03/02 17:15:53;;;;;;;43.63;38.93;;;3.50;88.60;;;;;;4959195;28;20207;-90
2023/03/02 17:18:19;;;;;;;50.23;41.77;;;3.50;88.70;;;;;;4959346;28;20174;-89
2023/03/02 17:20:45;;;;;;;48.47;39.27;;;3.50;88.60;;;;;;4973849;28;20183;-90
2023/03/02 17:23:11;;;;;;;45.97;40.87;;;3.50;88.60;;;;;;4969919;28;20179;-90
2023/03/02 17:25:37;;;;;;;48.47;38.67;;;3.70;88.70;;;;;;4972025;28;20712;-90
2023/03/02 17:28:03;;;;;;;47.27;38.27;;;3.90;88.80;;;;;;4966981;28;20203;-90
2023/03/02 17:30:29;;;;;;;45.03;36.93;;;4.00;88.60;;;;;;4966922;28;20263;-90
2023/03/02 17:32:55;;;;;;;39.90;33.90;;;4.20;88.50;;;;;;4965531;28;20179;-90
2023/03/02 17:35:20;;;;;;;39.47;33.03;;;4.10;88.10;;;;;;4964532;28;20217;-90
2023/03/02 17:37:47;;;;;;;43.63;35.77;;;4.20;88.10;;;;;;4964572;28;20202;-90
2023/03/02 17:40:14;;;;;;;41.40;33.83;;;4.30;87.80;;;;;;4964276;28;20190;-90
2023/03/02 17:42:40;;;;;;;39.63;34.30;;;4.30;87.70;;;;;;4966005;28;20264;-90
2023/03/02 17:45:06;;;;;;;41.90;34.53;;;4.40;87.70;;;;;;4962487;28;20194;-90